Time;durP1;ratioP1;P1;durP2;ratioP2;P2;SDS_P1;SDS_P2;PMS_P1;PMS_P2;Temp;Humidity;BMP_temperature;BMP_pressure;BME280_temperature;BME280_humidity;BME280_pressure;Samples;Min_cycle;Max_cycle;Signal;HPM_P1;HPM_P2
2021/08/19 00:02:13;;;;;;;11.35;6.85;;;18.20;96.60;;;;;;5052495;28;20400;-71
2021/08/19 00:04:40;;;;;;;9.77;6.57;;;18.20;96.70;;;;;;5053569;28;20025;-71
2021/08/19 00:07:05;;;;;;;9.52;7.25;;;18.20;96.60;;;;;;5053897;28;20021;-73
2021/08/19 00:09:32;;;;;;;9.07;7.15;;;18.20;96.60;;;;;;5053464;28;20029;-72
2021/08/19 00:11:59;;;;;;;10.10;6.80;;;18.20;96.60;;;;;;5052362;28;20025;-70
2021/08/19 00:14:25;;;;;;;15.13;7.43;;;18.10;96.70;;;;;;5053418;28;20045;-71
2021/08/19 00:16:50;;;;;;;11.02;6.90;;;18.20;96.70;;;;;;5053383;28;20041;-72
2021/08/19 00:19:16;;;;;;;10.65;6.30;;;18.20;96.60;;;;;;5053761;28;20095;-72
2021/08/19 00:21:41;;;;;;;8.48;6.10;;;18.10;96.50;;;;;;5053330;28;20090;-70
2021/08/19 00:24:07;;;;;;;9.23;6.53;;;18.20;96.50;;;;;;5052108;28;20052;-71
2021/08/19 00:26:34;;;;;;;10.32;5.70;;;18.20;96.40;;;;;;5053569;28;20121;-71
2021/08/19 00:28:59;;;;;;;11.55;6.03;;;18.20;96.40;;;;;;5052185;28;20033;-71
2021/08/19 00:31:25;;;;;;;13.23;6.68;;;18.10;96.30;;;;;;5053573;28;20032;-71
2021/08/19 00:33:52;;;;;;;9.07;6.07;;;18.10;96.50;;;;;;5052838;28;20025;-70
2021/08/19 00:36:18;;;;;;;9.93;6.30;;;18.00;96.40;;;;;;5052954;28;20021;-71
2021/08/19 00:38:45;;;;;;;9.30;5.63;;;18.10;96.40;;;;;;5052294;28;20052;-70
2021/08/19 00:41:10;;;;;;;10.53;6.20;;;18.10;96.30;;;;;;5052794;28;20056;-71
2021/08/19 00:43:36;;;;;;;9.93;6.22;;;18.10;96.30;;;;;;5052835;28;20743;-71
2021/08/19 00:46:03;;;;;;;9.55;5.18;;;18.10;96.30;;;;;;5052976;28;20021;-70
2021/08/19 00:48:30;;;;;;;8.98;5.32;;;18.10;96.20;;;;;;5052555;28;20021;-70
2021/08/19 00:50:56;;;;;;;11.80;5.88;;;18.20;96.30;;;;;;5051528;28;20064;-71
2021/08/19 00:53:21;;;;;;;11.68;5.72;;;18.10;96.30;;;;;;5052531;28;20048;-72
2021/08/19 00:55:49;;;;;;;10.32;5.93;;;18.10;96.30;;;;;;5051806;28;20458;-70
2021/08/19 00:58:14;;;;;;;10.57;5.20;;;18.00;96.40;;;;;;5053171;28;20029;-72
2021/08/19 01:00:42;;;;;;;8.82;5.80;;;18.00;96.40;;;;;;5052823;28;20033;-71
2021/08/19 01:03:08;;;;;;;10.00;5.97;;;18.00;96.40;;;;;;5052554;28;20033;-71
2021/08/19 01:05:38;;;;;;;13.65;7.30;;;18.10;96.80;;;;;;5052435;28;20466;-71
2021/08/19 01:08:04;;;;;;;11.23;6.53;;;18.10;97.10;;;;;;5052355;28;20442;-71
2021/08/19 01:10:30;;;;;;;9.43;6.30;;;18.00;97.50;;;;;;5052461;28;20044;-71
2021/08/19 01:12:57;;;;;;;12.02;7.22;;;18.10;97.40;;;;;;5052729;28;20431;-70
2021/08/19 01:15:24;;;;;;;15.23;7.25;;;18.10;97.40;;;;;;5052300;28;20110;-72
2021/08/19 01:18:02;;;;;;;13.55;7.43;;;18.00;97.80;;;;;;5052139;28;20076;-71
2021/08/19 01:20:33;;;;;;;11.48;7.57;;;18.00;97.90;;;;;;5051141;28;20033;-71
2021/08/19 01:23:00;;;;;;;12.68;7.40;;;18.00;98.00;;;;;;5051709;28;20037;-70
2021/08/19 01:25:27;;;;;;;13.32;7.40;;;18.00;98.00;;;;;;5052526;28;20108;-71
2021/08/19 01:27:55;;;;;;;15.13;8.15;;;18.00;98.00;;;;;;5051924;28;20443;-71
2021/08/19 01:30:22;;;;;;;13.65;8.10;;;18.00;98.00;;;;;;5051833;28;20098;-71
2021/08/19 01:32:48;;;;;;;10.90;7.13;;;18.00;98.00;;;;;;5051885;28;20029;-70
2021/08/19 01:35:27;;;;;;;12.90;6.85;;;18.00;97.90;;;;;;5048175;28;20044;-70
2021/08/19 01:37:52;;;;;;;11.60;7.65;;;18.00;97.80;;;;;;5032169;28;20083;-70
2021/08/19 01:40:18;;;;;;;16.00;8.07;;;18.10;97.70;;;;;;5032461;28;20026;-70
2021/08/19 01:42:44;;;;;;;11.45;7.30;;;18.10;97.70;;;;;;5030862;28;20025;-71
2021/08/19 01:45:12;;;;;;;13.10;7.30;;;18.10;97.70;;;;;;5031641;28;20574;-71
2021/08/19 01:47:39;;;;;;;12.10;7.53;;;18.10;97.60;;;;;;5031803;28;20095;-70
2021/08/19 01:50:05;;;;;;;12.05;7.72;;;18.10;97.50;;;;;;5030826;28;20091;-70
2021/08/19 01:52:30;;;;;;;13.38;7.38;;;18.10;97.40;;;;;;5031464;28;20423;-70
2021/08/19 01:54:56;;;;;;;12.15;7.40;;;18.10;97.30;;;;;;5030870;28;20025;-70
2021/08/19 01:57:23;;;;;;;12.40;7.28;;;18.00;97.30;;;;;;5030388;28;20036;-70
2021/08/19 01:59:49;;;;;;;12.30;6.50;;;18.00;97.20;;;;;;5031428;28;20037;-71
2021/08/19 02:02:15;;;;;;;12.68;7.82;;;18.10;97.30;;;;;;5031256;28;20108;-71
2021/08/19 02:04:40;;;;;;;10.85;6.53;;;18.10;97.20;;;;;;5031408;28;20037;-70
2021/08/19 02:07:06;;;;;;;9.60;6.32;;;18.00;97.20;;;;;;5031822;28;20036;-70
2021/08/19 02:09:35;;;;;;;10.77;6.82;;;18.00;97.30;;;;;;5031535;28;20034;-70
2021/08/19 02:12:03;;;;;;;12.02;7.15;;;18.00;97.30;;;;;;5031525;28;20025;-70
2021/08/19 02:14:28;;;;;;;14.25;7.38;;;18.00;97.30;;;;;;5031222;28;20387;-70
2021/08/19 02:16:54;;;;;;;12.15;6.72;;;17.90;97.20;;;;;;5031342;28;20037;-70
2021/08/19 02:19:20;;;;;;;13.15;6.65;;;18.00;97.20;;;;;;5031632;28;20099;-70
2021/08/19 02:21:45;;;;;;;9.68;6.40;;;18.00;97.10;;;;;;5030375;28;20029;-71
2021/08/19 02:24:11;;;;;;;12.77;7.07;;;18.00;97.10;;;;;;5030933;28;20044;-71
2021/08/19 02:26:37;;;;;;;9.25;6.15;;;18.00;97.10;;;;;;5031218;28;20037;-70
2021/08/19 02:29:02;;;;;;;11.80;6.10;;;18.00;97.10;;;;;;5031111;28;20045;-70
2021/08/19 02:31:28;;;;;;;11.70;6.97;;;18.00;97.00;;;;;;5031546;28;20026;-70
2021/08/19 02:33:54;;;;;;;12.88;6.32;;;17.90;96.90;;;;;;5030962;28;20367;-70
2021/08/19 02:36:19;;;;;;;10.35;7.07;;;17.90;96.90;;;;;;5031283;28;20064;-70
2021/08/19 02:38:45;;;;;;;11.32;6.53;;;17.90;96.90;;;;;;5031123;28;20045;-70
2021/08/19 02:41:10;;;;;;;13.23;6.68;;;18.00;96.90;;;;;;5030841;28;20030;-70
2021/08/19 02:43:42;;;;;;;10.00;6.40;;;18.00;96.80;;;;;;5030846;28;20029;-70
2021/08/19 02:46:08;;;;;;;13.52;6.80;;;18.00;96.80;;;;;;5031259;28;20022;-71
2021/08/19 02:48:33;;;;;;;12.88;6.68;;;18.00;96.80;;;;;;5030869;28;20040;-70
2021/08/19 02:50:59;;;;;;;10.25;6.53;;;17.90;96.90;;;;;;5030792;28;20065;-70
2021/08/19 02:53:24;;;;;;;11.88;6.60;;;17.90;96.90;;;;;;5030709;28;20033;-70
2021/08/19 02:55:50;;;;;;;12.93;6.40;;;17.90;96.80;;;;;;5030958;28;20022;-70
2021/08/19 02:58:15;;;;;;;12.77;6.57;;;17.90;96.80;;;;;;5031629;28;20017;-70
2021/08/19 03:00:41;;;;;;;13.45;7.38;;;17.90;96.70;;;;;;5030949;28;20490;-70
2021/08/19 03:03:06;;;;;;;13.43;6.93;;;17.90;96.90;;;;;;5033602;28;20025;-71
2021/08/19 03:05:32;;;;;;;11.90;6.85;;;17.90;96.90;;;;;;5033694;28;20029;-71
2021/08/19 03:07:57;;;;;;;15.38;7.35;;;17.90;96.90;;;;;;5034880;28;20030;-70
2021/08/19 03:10:23;;;;;;;10.90;6.95;;;17.90;96.90;;;;;;5035235;28;20040;-71
2021/08/19 03:12:49;;;;;;;18.90;6.53;;;17.90;96.80;;;;;;5035033;28;20637;-70
2021/08/19 03:15:14;;;;;;;10.25;6.10;;;17.90;96.80;;;;;;5034490;28;20072;-70
2021/08/19 03:17:40;;;;;;;17.73;7.75;;;17.90;96.80;;;;;;5034495;28;20029;-71
2021/08/19 03:20:07;;;;;;;11.00;6.60;;;18.00;96.80;;;;;;5033540;28;20037;-71
2021/08/19 03:22:33;;;;;;;13.10;6.68;;;17.90;96.80;;;;;;5033229;28;20029;-70
2021/08/19 03:25:02;;;;;;;9.50;6.35;;;17.90;96.80;;;;;;5034953;28;20044;-70
2021/08/19 03:27:31;;;;;;;14.18;6.15;;;18.00;96.80;;;;;;5034321;28;20026;-71
2021/08/19 03:29:59;;;;;;;10.10;6.50;;;17.90;96.70;;;;;;5034417;28;20021;-70
2021/08/19 03:32:25;;;;;;;9.52;6.15;;;17.90;96.70;;;;;;5034275;28;20352;-71
2021/08/19 03:34:51;;;;;;;10.35;6.25;;;17.90;96.80;;;;;;5034075;28;20021;-71
2021/08/19 03:37:16;;;;;;;11.90;6.18;;;17.90;96.70;;;;;;5034492;28;20337;-71
2021/08/19 03:39:45;;;;;;;10.95;6.80;;;17.90;96.70;;;;;;5034052;28;20068;-69
2021/08/19 03:42:10;;;;;;;11.60;6.68;;;17.90;96.60;;;;;;5033973;28;20168;-70
2021/08/19 03:44:36;;;;;;;13.35;6.80;;;17.90;96.70;;;;;;5033791;28;20052;-71
2021/08/19 03:47:01;;;;;;;9.60;5.88;;;17.90;96.70;;;;;;5033774;28;20033;-70
2021/08/19 03:49:27;;;;;;;12.55;6.22;;;17.90;96.70;;;;;;5034219;28;20022;-70
2021/08/19 03:51:52;;;;;;;10.55;6.38;;;17.90;96.60;;;;;;5033984;28;20585;-70
2021/08/19 03:54:18;;;;;;;13.48;6.40;;;17.90;96.60;;;;;;5033943;28;20025;-71
2021/08/19 03:56:44;;;;;;;9.85;6.13;;;17.90;96.60;;;;;;5033790;28;20057;-71
2021/08/19 03:59:09;;;;;;;11.10;6.32;;;17.90;96.70;;;;;;5033759;28;20064;-70
2021/08/19 04:01:36;;;;;;;9.57;6.38;;;17.80;96.80;;;;;;5033784;28;20363;-71
2021/08/19 04:04:02;;;;;;;14.45;7.10;;;17.80;96.80;;;;;;5034081;28;20040;-70
2021/08/19 04:06:27;;;;;;;12.18;7.00;;;17.80;97.10;;;;;;5033643;28;20026;-70
2021/08/19 04:08:53;;;;;;;13.82;6.40;;;17.80;96.90;;;;;;5033869;28;20502;-71
2021/08/19 04:11:18;;;;;;;11.90;6.80;;;17.70;97.00;;;;;;5033499;28;20407;-70
2021/08/19 04:13:44;;;;;;;10.82;6.88;;;17.70;97.10;;;;;;5032431;28;20475;-70
2021/08/19 04:16:10;;;;;;;15.15;7.50;;;17.60;97.20;;;;;;5033998;28;20051;-72
2021/08/19 04:18:35;;;;;;;13.18;7.13;;;17.70;97.20;;;;;;5033371;28;20034;-71
2021/08/19 04:21:04;;;;;;;14.35;7.25;;;17.70;97.20;;;;;;5033325;28;20062;-71
2021/08/19 04:23:30;;;;;;;12.93;7.20;;;17.80;97.20;;;;;;5033064;28;20072;-71
2021/08/19 04:25:58;;;;;;;13.57;7.20;;;17.80;97.20;;;;;;5033352;28;20522;-70
2021/08/19 04:28:27;;;;;;;13.43;7.90;;;17.80;97.20;;;;;;5033582;28;20029;-70
2021/08/19 04:30:52;;;;;;;14.32;8.45;;;17.80;97.20;;;;;;5033235;28;20061;-70
2021/08/19 04:33:19;;;;;;;15.25;8.00;;;17.80;97.30;;;;;;5032943;28;20164;-70
2021/08/19 04:35:44;;;;;;;15.68;8.30;;;17.80;97.30;;;;;;5032938;28;20110;-71
2021/08/19 04:38:10;;;;;;;15.10;8.18;;;17.80;97.30;;;;;;5032172;28;20037;-70
2021/08/19 04:40:36;;;;;;;14.27;8.38;;;17.80;97.40;;;;;;5033157;28;20033;-70
2021/08/19 04:43:01;;;;;;;14.73;8.02;;;17.80;97.40;;;;;;5033744;28;20032;-70
2021/08/19 04:45:30;;;;;;;12.95;8.10;;;17.80;97.40;;;;;;5032917;28;20040;-71
2021/08/19 04:47:56;;;;;;;14.23;8.18;;;17.70;97.60;;;;;;5033060;28;20029;-70
2021/08/19 04:50:24;;;;;;;14.85;8.45;;;17.80;97.60;;;;;;5032935;28;20031;-71
2021/08/19 04:52:50;;;;;;;13.75;8.00;;;17.70;97.70;;;;;;5032612;28;20045;-70
2021/08/19 04:55:15;;;;;;;13.23;8.23;;;17.70;97.60;;;;;;5033630;28;20106;-71
2021/08/19 04:57:41;;;;;;;15.20;8.15;;;17.80;97.60;;;;;;5032845;28;20112;-71
2021/08/19 05:00:07;;;;;;;12.68;7.55;;;17.80;97.60;;;;;;5032932;28;20045;-71
2021/08/19 05:02:33;;;;;;;16.35;7.93;;;17.80;97.50;;;;;;5032383;28;20053;-70
2021/08/19 05:04:58;;;;;;;14.77;8.20;;;17.90;97.50;;;;;;5032357;28;20033;-70
2021/08/19 05:07:26;;;;;;;14.93;8.77;;;17.80;97.60;;;;;;5032628;28;20642;-70
2021/08/19 05:09:52;;;;;;;14.70;8.25;;;17.80;97.50;;;;;;5032435;28;20033;-70
2021/08/19 05:12:17;;;;;;;17.33;9.65;;;17.80;97.70;;;;;;5032373;28;20033;-71
2021/08/19 05:14:43;;;;;;;16.35;8.80;;;17.90;97.70;;;;;;5032457;28;20368;-71
2021/08/19 05:17:08;;;;;;;21.50;9.27;;;17.90;97.60;;;;;;5031320;28;20076;-70
2021/08/19 05:19:34;;;;;;;22.27;9.90;;;17.90;97.60;;;;;;5032300;28;20155;-72
2021/08/19 05:21:59;;;;;;;15.63;9.10;;;17.80;97.70;;;;;;5032602;28;20079;-71
2021/08/19 05:24:25;;;;;;;16.80;9.30;;;17.90;97.70;;;;;;5032005;28;20045;-69
2021/08/19 05:26:50;;;;;;;16.50;8.63;;;17.90;97.70;;;;;;5031864;28;20040;-70
2021/08/19 05:29:16;;;;;;;16.08;9.63;;;17.90;97.60;;;;;;5032168;28;20422;-70
2021/08/19 05:31:41;;;;;;;16.80;8.82;;;17.90;97.70;;;;;;5031737;28;20348;-70
2021/08/19 05:34:08;;;;;;;18.05;9.80;;;17.90;97.70;;;;;;5032096;28;20021;-69
2021/08/19 05:36:34;;;;;;;17.08;9.45;;;18.00;97.70;;;;;;5031541;28;20107;-69
2021/08/19 05:39:00;;;;;;;15.60;9.50;;;18.00;97.60;;;;;;5031333;28;20036;-69
2021/08/19 05:41:25;;;;;;;16.95;9.43;;;18.00;97.60;;;;;;5031295;28;20033;-70
2021/08/19 05:43:51;;;;;;;15.15;8.93;;;18.10;97.60;;;;;;5030946;28;20021;-69
2021/08/19 05:46:16;;;;;;;19.60;9.32;;;18.10;97.60;;;;;;5031485;28;20108;-69
2021/08/19 05:48:42;;;;;;;19.90;10.48;;;18.10;97.60;;;;;;5031668;28;20056;-69
2021/08/19 05:51:10;;;;;;;18.33;10.10;;;18.20;97.60;;;;;;5031172;28;20129;-69
2021/08/19 05:53:35;;;;;;;16.13;10.15;;;18.10;97.60;;;;;;5031319;28;20033;-70
2021/08/19 05:56:01;;;;;;;18.10;9.52;;;18.00;97.60;;;;;;5031378;28;20045;-69
2021/08/19 05:58:26;;;;;;;18.75;9.75;;;18.00;97.80;;;;;;5032065;28;20102;-70
2021/08/19 06:00:52;;;;;;;19.17;9.73;;;18.00;97.90;;;;;;5031238;28;20078;-70
2021/08/19 06:03:22;;;;;;;15.38;8.93;;;18.00;97.80;;;;;;5031371;28;20018;-70
2021/08/19 06:05:51;;;;;;;16.75;9.70;;;18.00;97.80;;;;;;5042334;28;20048;-69
2021/08/19 06:08:17;;;;;;;15.38;8.93;;;18.00;97.80;;;;;;5050966;28;20458;-70
2021/08/19 06:10:43;;;;;;;13.88;7.95;;;18.10;97.80;;;;;;5050712;28;20032;-70
2021/08/19 06:13:11;;;;;;;15.15;8.50;;;18.10;97.70;;;;;;5050192;28;20166;-70
2021/08/19 06:15:37;;;;;;;19.88;9.98;;;18.10;97.70;;;;;;5051085;28;20033;-69
2021/08/19 06:18:03;;;;;;;14.52;9.23;;;18.10;97.80;;;;;;5050792;28;20025;-70
2021/08/19 06:20:29;;;;;;;17.35;9.15;;;18.00;97.80;;;;;;5050564;28;20041;-70
2021/08/19 06:22:55;;;;;;;16.13;8.68;;;18.00;97.90;;;;;;5050392;28;20036;-70
2021/08/19 06:25:21;;;;;;;16.17;8.95;;;18.00;97.90;;;;;;5050953;28;20017;-70
2021/08/19 06:27:47;;;;;;;14.43;9.55;;;18.00;98.00;;;;;;5050699;28;20463;-69
2021/08/19 06:30:14;;;;;;;14.57;8.88;;;18.10;98.00;;;;;;5050432;28;20044;-69
2021/08/19 06:32:42;;;;;;;14.25;8.77;;;18.00;97.90;;;;;;5050643;28;20485;-69
2021/08/19 06:35:09;;;;;;;17.40;8.48;;;18.10;97.90;;;;;;5050586;28;20037;-69
2021/08/19 06:37:35;;;;;;;12.48;8.52;;;18.10;97.80;;;;;;5050186;28;20620;-69
2021/08/19 06:40:01;;;;;;;15.35;9.32;;;18.20;97.90;;;;;;5050823;28;20461;-68
2021/08/19 06:42:26;;;;;;;17.42;8.75;;;18.20;97.90;;;;;;5050789;28;20029;-70
2021/08/19 06:44:52;;;;;;;14.25;8.15;;;18.20;97.80;;;;;;5049295;28;20047;-70
2021/08/19 06:47:17;;;;;;;16.23;8.63;;;18.20;97.80;;;;;;5050477;28;20081;-70
2021/08/19 06:49:44;;;;;;;15.27;9.70;;;18.20;97.70;;;;;;5050155;28;20021;-70
2021/08/19 06:52:10;;;;;;;15.00;9.07;;;18.20;97.70;;;;;;5050818;28;20067;-71
2021/08/19 06:54:36;;;;;;;15.23;8.80;;;18.10;97.70;;;;;;5049277;28;20030;-70
2021/08/19 06:57:02;;;;;;;17.42;8.88;;;18.20;97.80;;;;;;5050352;28;20083;-71
2021/08/19 06:59:28;;;;;;;18.08;9.32;;;18.20;97.70;;;;;;5050363;28;20371;-70
2021/08/19 07:01:54;;;;;;;19.70;9.18;;;18.30;97.80;;;;;;5049264;28;20609;-71
2021/08/19 07:04:20;;;;;;;17.75;8.82;;;18.20;97.70;;;;;;5050729;28;20086;-71
2021/08/19 07:06:48;;;;;;;15.63;8.82;;;18.30;97.60;;;;;;5050437;28;20074;-71
2021/08/19 07:09:15;;;;;;;14.40;9.00;;;18.20;97.60;;;;;;5050393;28;20024;-71
2021/08/19 07:11:41;;;;;;;19.48;9.77;;;18.20;97.60;;;;;;5050398;28;20029;-71
2021/08/19 07:14:07;;;;;;;16.10;8.85;;;18.10;97.70;;;;;;5050153;28;20029;-70
2021/08/19 07:16:32;;;;;;;13.65;8.90;;;18.20;97.70;;;;;;5050121;28;20469;-70
2021/08/19 07:18:58;;;;;;;14.55;8.75;;;18.20;97.70;;;;;;5050630;28;20528;-70
2021/08/19 07:21:24;;;;;;;15.63;8.18;;;18.20;97.70;;;;;;5050129;28;20029;-71
2021/08/19 07:23:49;;;;;;;16.55;8.07;;;18.20;97.80;;;;;;5050009;28;20045;-70
2021/08/19 07:26:16;;;;;;;17.33;8.00;;;18.30;97.90;;;;;;5049989;28;20391;-71
2021/08/19 07:28:42;;;;;;;16.83;8.70;;;18.20;98.10;;;;;;5049751;28;20029;-71
2021/08/19 07:31:08;;;;;;;16.13;8.68;;;18.10;98.50;;;;;;5050334;28;20029;-71
2021/08/19 07:33:33;;;;;;;14.15;7.55;;;18.10;98.70;;;;;;5049789;28;20229;-72
2021/08/19 07:35:59;;;;;;;17.02;8.98;;;18.10;98.80;;;;;;5050059;28;20141;-70
2021/08/19 07:38:24;;;;;;;17.80;8.18;;;18.00;99.10;;;;;;5049910;28;20375;-70
2021/08/19 07:40:50;;;;;;;20.00;9.20;;;17.90;99.30;;;;;;5050084;28;20100;-70
2021/08/19 07:43:16;;;;;;;16.77;9.05;;;17.90;99.60;;;;;;5050519;28;20354;-70
2021/08/19 07:45:42;;;;;;;15.90;9.40;;;17.90;99.90;;;;;;5049873;28;20439;-70
2021/08/19 07:48:12;;;;;;;16.08;9.07;;;17.80;99.90;;;;;;5050466;28;20033;-70
2021/08/19 07:50:38;;;;;;;14.65;8.75;;;17.80;99.90;;;;;;5053355;28;20033;-71
2021/08/19 07:53:04;;;;;;;16.65;9.48;;;17.90;99.90;;;;;;5053400;28;20098;-70
2021/08/19 07:55:31;;;;;;;21.20;8.95;;;18.00;99.90;;;;;;5053258;28;20035;-70
2021/08/19 07:57:56;;;;;;;18.55;9.95;;;17.90;99.90;;;;;;5053711;28;20456;-71
2021/08/19 08:00:34;;;;;;;12.40;8.20;;;17.80;99.90;;;;;;5053071;28;20032;-71
2021/08/19 08:02:59;;;;;;;16.45;8.60;;;17.70;99.90;;;;;;5053215;28;20052;-69
2021/08/19 08:05:28;;;;;;;27.20;17.35;;;17.80;99.90;;;;;;5052910;28;20045;-70
2021/08/19 08:08:01;;;;;;;19.30;10.70;;;17.90;99.90;;;;;;5053424;28;20103;-70
2021/08/19 08:10:27;;;;;;;15.43;8.70;;;17.90;99.90;;;;;;5053513;28;20021;-70
2021/08/19 08:12:53;;;;;;;17.10;9.30;;;18.00;99.90;;;;;;5053078;28;20110;-70
2021/08/19 08:15:18;;;;;;;19.77;10.82;;;18.10;99.90;;;;;;5052854;28;20466;-70
2021/08/19 08:17:44;;;;;;;17.25;9.02;;;18.10;99.90;;;;;;5053015;28;20067;-71
2021/08/19 08:20:11;;;;;;;13.85;8.40;;;18.20;99.80;;;;;;5053014;28;20029;-71
2021/08/19 08:22:40;;;;;;;15.77;9.18;;;18.20;99.60;;;;;;5052577;28;20446;-71
2021/08/19 08:25:06;;;;;;;15.02;8.80;;;18.10;99.50;;;;;;5053249;28;20369;-71
2021/08/19 08:27:32;;;;;;;18.48;8.32;;;18.20;99.60;;;;;;5052873;28;20036;-72
2021/08/19 08:29:58;;;;;;;14.90;9.98;;;18.30;99.60;;;;;;5052168;28;20029;-69
2021/08/19 08:32:23;;;;;;;17.42;8.25;;;18.10;99.50;;;;;;5052348;28;20025;-69
2021/08/19 08:34:49;;;;;;;19.08;9.65;;;18.30;99.70;;;;;;5052539;28;20744;-71
2021/08/19 08:37:15;;;;;;;14.07;8.77;;;18.30;99.40;;;;;;5053360;28;20328;-69
2021/08/19 08:39:41;;;;;;;17.98;8.60;;;18.40;99.40;;;;;;5052514;28;20533;-69
2021/08/19 08:42:11;;;;;;;15.63;8.93;;;18.40;99.20;;;;;;5052544;28;20033;-70
2021/08/19 08:44:37;;;;;;;14.43;8.93;;;18.50;99.10;;;;;;5052388;28;20040;-72
2021/08/19 08:47:03;;;;;;;14.75;8.48;;;18.60;99.00;;;;;;5052391;28;20025;-70
2021/08/19 08:49:30;;;;;;;14.95;8.25;;;18.60;99.00;;;;;;5052849;28;20025;-69
2021/08/19 08:51:57;;;;;;;20.65;9.75;;;18.60;98.80;;;;;;5052439;28;20450;-70
2021/08/19 08:54:29;;;;;;;16.13;9.23;;;18.70;98.70;;;;;;5052084;28;20040;-72
2021/08/19 08:56:56;;;;;;;15.43;9.05;;;18.70;98.30;;;;;;5052149;28;20044;-70
2021/08/19 08:59:22;;;;;;;16.25;9.65;;;18.70;98.30;;;;;;5051408;28;20494;-72
2021/08/19 09:01:47;;;;;;;14.60;10.05;;;18.90;98.30;;;;;;5052017;28;20029;-72
2021/08/19 09:04:13;;;;;;;17.77;10.00;;;18.70;97.80;;;;;;5052339;28;20419;-73
2021/08/19 09:06:43;;;;;;;13.40;9.32;;;18.70;98.00;;;;;;5052132;28;20039;-72
2021/08/19 09:09:23;;;;;;;20.85;10.18;;;18.80;97.90;;;;;;5051959;28;20025;-71
2021/08/19 09:11:54;;;;;;;18.38;10.32;;;18.90;97.80;;;;;;5052139;28;20040;-70
2021/08/19 09:14:25;;;;;;;20.13;11.05;;;19.00;97.60;;;;;;5052004;28;20103;-71
2021/08/19 09:16:51;;;;;;;16.33;10.25;;;18.90;97.40;;;;;;5051904;28;20108;-70
2021/08/19 09:19:19;;;;;;;15.13;9.98;;;18.90;97.50;;;;;;5052544;28;20086;-71
2021/08/19 09:21:53;;;;;;;16.38;9.63;;;19.00;97.40;;;;;;5051557;28;20565;-70
2021/08/19 09:24:24;;;;;;;14.63;10.00;;;19.00;97.30;;;;;;5051207;28;20132;-70
2021/08/19 09:26:51;;;;;;;14.38;9.18;;;19.10;97.20;;;;;;5051674;28;20059;-70
2021/08/19 09:29:20;;;;;;;17.58;9.80;;;19.10;97.10;;;;;;5051558;28;20056;-72
2021/08/19 09:31:48;;;;;;;15.55;9.93;;;19.10;97.10;;;;;;5051532;28;20035;-70
2021/08/19 09:34:15;;;;;;;;;;;19.10;97.00;;;;;;5052435;28;20021;-70
2021/08/19 09:36:40;;;;;;;13.73;9.60;;;19.10;97.00;;;;;;5051414;28;19913;-69
2021/08/19 09:39:07;;;;;;;16.83;10.15;;;19.10;97.00;;;;;;5051667;28;20035;-70
2021/08/19 09:41:49;;;;;;;15.48;10.05;;;19.00;96.90;;;;;;5051407;28;20098;-70
2021/08/19 09:44:34;;;;;;;16.90;9.07;;;19.00;97.10;;;;;;5051453;28;20559;-69
2021/08/19 09:47:04;;;;;;;16.05;9.80;;;19.00;96.90;;;;;;5051483;28;20037;-71
2021/08/19 09:49:34;;;;;;;17.80;9.75;;;18.90;96.80;;;;;;5051218;28;20048;-70
2021/08/19 09:52:13;;;;;;;15.32;9.95;;;18.90;96.80;;;;;;5050362;28;20028;-70
2021/08/19 09:54:41;;;;;;;16.15;9.98;;;18.90;96.90;;;;;;5050892;28;20029;-71
2021/08/19 09:57:09;;;;;;;13.85;9.82;;;18.80;96.80;;;;;;5051077;28;20029;-71
2021/08/19 09:59:37;;;;;;;17.58;9.77;;;18.80;96.90;;;;;;5051226;28;20041;-71
2021/08/19 10:02:05;;;;;;;16.48;9.75;;;18.80;97.00;;;;;;5050972;28;20055;-71
2021/08/19 10:04:30;;;;;;;16.08;10.50;;;18.90;97.00;;;;;;5050648;28;20014;-71
2021/08/19 10:06:57;;;;;;;15.85;10.77;;;19.00;97.00;;;;;;5051749;28;20083;-70
2021/08/19 10:09:24;;;;;;;18.73;10.33;;;19.00;96.90;;;;;;5049887;28;20363;-72
2021/08/19 10:11:52;;;;;;;16.63;10.23;;;19.10;96.90;;;;;;5050191;28;20021;-71
2021/08/19 10:14:22;;;;;;;15.52;10.10;;;19.00;96.70;;;;;;5050680;28;20079;-72
2021/08/19 10:16:49;;;;;;;16.73;9.75;;;19.10;96.90;;;;;;5050918;28;20104;-70
2021/08/19 10:19:27;;;;;;;16.42;11.05;;;19.20;96.70;;;;;;5051389;28;20040;-71
2021/08/19 10:21:56;;;;;;;;;;;19.30;96.70;;;;;;5051327;28;20536;-70
2021/08/19 10:24:34;;;;;;;17.13;10.95;;;19.30;96.80;;;;;;5050049;28;19921;-70
2021/08/19 10:27:15;;;;;;;;;;;19.40;96.70;;;;;;5051086;28;20059;-70
2021/08/19 10:29:50;;;;;;;16.52;9.35;;;19.50;96.70;;;;;;5050713;28;19955;-70
2021/08/19 10:32:28;;;;;;;17.52;10.30;;;19.50;96.60;;;;;;5050171;28;20029;-71
2021/08/19 10:34:55;;;;;;;18.88;11.05;;;19.50;96.40;;;;;;5050399;28;20025;-70
2021/08/19 10:37:21;;;;;;;18.42;11.65;;;19.40;96.40;;;;;;5050723;28;20068;-71
2021/08/19 10:39:47;;;;;;;20.35;10.77;;;19.40;96.40;;;;;;5050178;28;20064;-69
2021/08/19 10:42:28;;;;;;;17.88;11.35;;;19.50;96.50;;;;;;5050527;28;20049;-69
2021/08/19 10:44:54;;;;;;;18.45;12.43;;;19.50;96.50;;;;;;5050258;28;20037;-70
2021/08/19 10:47:38;;;;;;;19.10;12.23;;;19.50;96.70;;;;;;5049350;28;20400;-70
2021/08/19 10:50:34;;;;;;;20.05;13.00;;;19.40;97.40;;;;;;5050460;28;20404;-70
2021/08/19 10:53:10;;;;;;;24.65;14.85;;;19.30;97.80;;;;;;5051000;28;20033;-70
2021/08/19 10:55:46;;;;;;;23.08;15.13;;;19.30;98.10;;;;;;5050630;28;20102;-69
2021/08/19 10:58:21;;;;;;;24.05;15.77;;;19.30;98.10;;;;;;5050631;28;20021;-70
2021/08/19 11:00:46;;;;;;;22.05;14.13;;;19.30;98.40;;;;;;5050226;28;20047;-70
2021/08/19 11:03:37;;;;;;;21.13;14.30;;;19.30;98.30;;;;;;5050036;28;20028;-68
2021/08/19 11:06:03;;;;;;;25.73;14.02;;;19.40;98.20;;;;;;5050091;28;20037;-70
2021/08/19 11:08:43;;;;;;;27.88;14.38;;;19.40;98.20;;;;;;5050177;28;20116;-69
2021/08/19 11:11:11;;;;;;;23.08;14.07;;;19.40;98.10;;;;;;5049857;28;20481;-71
2021/08/19 11:13:37;;;;;;;23.35;13.48;;;19.40;98.10;;;;;;5050505;28;20032;-69
2021/08/19 11:16:12;;;;;;;26.20;15.15;;;19.50;98.20;;;;;;5050633;28;20013;-71
2021/08/19 11:18:40;;;;;;;26.17;15.65;;;19.40;98.20;;;;;;5050258;28;20032;-69
2021/08/19 11:21:09;;;;;;;24.92;14.95;;;19.50;98.30;;;;;;5050238;28;20115;-69
2021/08/19 11:23:39;;;;;;;26.20;16.13;;;19.50;98.20;;;;;;5052924;28;20041;-69
2021/08/19 11:26:08;;;;;;;31.38;15.98;;;19.50;98.20;;;;;;5053862;28;20470;-69
2021/08/19 11:28:34;;;;;;;;;;;19.50;98.30;;;;;;5054430;28;20056;-69
2021/08/19 11:31:08;;;;;;;32.55;16.75;;;19.50;98.30;;;;;;5054637;28;19915;-69
2021/08/19 11:33:33;;;;;;;30.50;16.13;;;19.60;98.40;;;;;;5053978;28;20040;-70
2021/08/19 11:36:00;;;;;;;24.40;16.15;;;19.60;98.30;;;;;;5053893;28;20581;-69
2021/08/19 11:38:27;;;;;;;24.30;15.63;;;19.70;98.30;;;;;;5053598;28;20430;-69
2021/08/19 11:40:55;;;;;;;29.88;15.32;;;19.80;98.30;;;;;;5053681;28;20029;-69
2021/08/19 11:43:27;;;;;;;30.45;14.90;;;19.90;98.00;;;;;;5054051;28;20413;-69
2021/08/19 11:46:10;;;;;;;24.63;15.02;;;19.90;97.90;;;;;;5053676;28;20043;-69
2021/08/19 11:48:38;;;;;;;31.20;13.90;;;20.00;97.90;;;;;;5053685;28;20116;-69
2021/08/19 11:51:05;;;;;;;23.20;14.13;;;20.00;97.90;;;;;;5053469;28;20033;-69
2021/08/19 11:53:31;;;;;;;21.47;13.97;;;20.10;97.80;;;;;;5053633;28;20049;-71
2021/08/19 11:56:11;;;;;;;25.67;14.10;;;20.10;97.60;;;;;;5053084;28;20538;-70
2021/08/19 11:58:37;;;;;;;17.17;11.45;;;20.00;97.60;;;;;;5053378;28;20021;-69
2021/08/19 12:01:10;;;;;;;17.50;11.52;;;20.00;97.70;;;;;;5052755;28;20028;-70
2021/08/19 12:03:40;;;;;;;21.52;10.80;;;20.10;97.60;;;;;;5053519;28;20036;-70
2021/08/19 12:06:10;;;;;;;13.45;8.65;;;20.20;97.50;;;;;;5053303;28;20036;-70
2021/08/19 12:08:47;;;;;;;10.32;7.43;;;20.20;97.30;;;;;;5053488;28;20036;-69
2021/08/19 12:11:15;;;;;;;11.50;7.90;;;20.30;97.30;;;;;;5053039;28;20063;-69
2021/08/19 12:13:41;;;;;;;14.02;8.25;;;20.30;97.30;;;;;;5052111;28;20116;-69
2021/08/19 12:16:09;;;;;;;14.43;9.40;;;20.30;97.30;;;;;;5053548;28;20097;-69
2021/08/19 12:18:34;;;;;;;13.80;9.10;;;20.30;97.20;;;;;;5053038;28;20114;-69
2021/08/19 12:21:15;;;;;;;14.63;9.40;;;20.30;97.40;;;;;;5053038;28;20120;-69
2021/08/19 12:23:41;;;;;;;14.82;9.32;;;20.30;97.50;;;;;;5052842;28;20225;-69
2021/08/19 12:26:08;;;;;;;13.68;9.25;;;20.30;97.40;;;;;;5052695;28;20045;-71
2021/08/19 12:28:34;;;;;;;13.53;8.93;;;20.20;97.40;;;;;;5052922;28;20036;-70
2021/08/19 12:31:03;;;;;;;14.18;8.88;;;20.30;97.60;;;;;;5053528;28;20262;-70
2021/08/19 12:33:39;;;;;;;13.45;8.38;;;20.30;97.80;;;;;;5052172;28;20415;-69
2021/08/19 12:36:17;;;;;;;12.32;8.55;;;20.20;97.90;;;;;;5052433;28;20040;-70
2021/08/19 12:38:45;;;;;;;12.45;8.15;;;20.20;97.70;;;;;;5052508;28;20048;-69
2021/08/19 12:41:11;;;;;;;;;;;20.30;97.60;;;;;;5052875;28;20667;-70